sensor_id;sensor_type;location;lat;lon;timestamp;pressure;altitude;pressure_sealevel;temperature;humidity
60345;BME280;46188;52.324;8.032;2022-12-18T00:01:35;101789.84;;;-7.44;100.00
60345;BME280;46188;52.324;8.032;2022-12-18T00:04:06;101796.00;;;-7.51;100.00
60345;BME280;46188;52.324;8.032;2022-12-18T00:06:33;101794.28;;;-7.59;100.00
60345;BME280;46188;52.324;8.032;2022-12-18T00:09:00;101798.34;;;-7.61;100.00
60345;BME280;46188;52.324;8.032;2022-12-18T00:11:28;101790.72;;;-7.52;100.00
60345;BME280;46188;52.324;8.032;2022-12-18T00:13:56;101791.34;;;-7.46;100.00
60345;BME280;46188;52.324;8.032;2022-12-18T00:16:23;101801.16;;;-7.42;100.00
60345;BME280;46188;52.324;8.032;2022-12-18T00:18:51;101795.31;;;-7.41;100.00
60345;BME280;46188;52.324;8.032;2022-12-18T00:21:17;101793.25;;;-7.28;100.00
60345;BME280;46188;52.324;8.032;2022-12-18T00:23:44;101792.03;;;-7.31;100.00
60345;BME280;46188;52.324;8.032;2022-12-18T00:26:16;101798.22;;;-7.29;100.00
60345;BME280;46188;52.324;8.032;2022-12-18T00:28:42;101795.22;;;-7.25;100.00
60345;BME280;46188;52.324;8.032;2022-12-18T00:31:11;101798.22;;;-7.29;100.00
60345;BME280;46188;52.324;8.032;2022-12-18T00:33:37;101800.63;;;-7.31;100.00
60345;BME280;46188;52.324;8.032;2022-12-18T00:36:12;101790.69;;;-7.28;100.00
60345;BME280;46188;52.324;8.032;2022-12-18T00:38:39;101796.22;;;-7.32;100.00
60345;BME280;46188;52.324;8.032;2022-12-18T00:41:06;101800.19;;;-7.27;100.00
60345;BME280;46188;52.324;8.032;2022-12-18T00:43:33;101801.53;;;-7.30;100.00
60345;BME280;46188;52.324;8.032;2022-12-18T00:45:59;101800.19;;;-7.27;100.00
60345;BME280;46188;52.324;8.032;2022-12-18T00:48:24;101793.50;;;-7.33;100.00
60345;BME280;46188;52.324;8.032;2022-12-18T00:50:50;101793.34;;;-7.35;100.00
60345;BME280;46188;52.324;8.032;2022-12-18T00:53:16;101784.34;;;-7.31;100.00
60345;BME280;46188;52.324;8.032;2022-12-18T00:55:42;101786.63;;;-7.26;100.00
60345;BME280;46188;52.324;8.032;2022-12-18T00:58:09;101788.28;;;-7.26;100.00
60345;BME280;46188;52.324;8.032;2022-12-18T01:00:35;101785.44;;;-7.20;100.00
60345;BME280;46188;52.324;8.032;2022-12-18T01:03:01;101788.66;;;-7.14;100.00
60345;BME280;46188;52.324;8.032;2022-12-18T01:05:27;101788.66;;;-7.14;100.00
60345;BME280;46188;52.324;8.032;2022-12-18T01:07:52;101784.72;;;-7.11;100.00
60345;BME280;46188;52.324;8.032;2022-12-18T01:10:18;101790.16;;;-7.16;100.00
60345;BME280;46188;52.324;8.032;2022-12-18T01:12:44;101797.78;;;-7.25;100.00
60345;BME280;46188;52.324;8.032;2022-12-18T01:15:10;101796.13;;;-7.25;100.00
60345;BME280;46188;52.324;8.032;2022-12-18T01:17:36;101783.31;;;-7.25;100.00
60345;BME280;46188;52.324;8.032;2022-12-18T01:20:03;101783.00;;;-7.28;100.00
60345;BME280;46188;52.324;8.032;2022-12-18T01:22:29;101784.75;;;-7.35;100.00
60345;BME280;46188;52.324;8.032;2022-12-18T01:24:54;101792.78;;;-7.32;100.00
60345;BME280;46188;52.324;8.032;2022-12-18T01:27:20;101790.69;;;-7.28;100.00
60345;BME280;46188;52.324;8.032;2022-12-18T01:29:45;101777.91;;;-7.19;100.00
60345;BME280;46188;52.324;8.032;2022-12-18T01:32:10;101775.91;;;-7.30;100.00
60345;BME280;46188;52.324;8.032;2022-12-18T01:34:36;101785.41;;;-7.29;100.00
60345;BME280;46188;52.324;8.032;2022-12-18T01:37:03;101791.59;;;-7.27;100.00
60345;BME280;46188;52.324;8.032;2022-12-18T01:39:29;101795.22;;;-7.25;100.00
60345;BME280;46188;52.324;8.032;2022-12-18T01:41:54;101797.69;;;-7.18;100.00
60345;BME280;46188;52.324;8.032;2022-12-18T01:50:20;101804.78;;;-7.07;100.00
60345;BME280;46188;52.324;8.032;2022-12-18T01:52:55;101802.38;;;-7.05;100.00
60345;BME280;46188;52.324;8.032;2022-12-18T01:55:23;101809.50;;;-7.02;100.00
60345;BME280;46188;52.324;8.032;2022-12-18T01:57:52;101800.69;;;-7.13;100.00
60345;BME280;46188;52.324;8.032;2022-12-18T02:00:21;101796.88;;;-7.26;100.00
60345;BME280;46188;52.324;8.032;2022-12-18T02:02:47;101792.56;;;-7.18;100.00
60345;BME280;46188;52.324;8.032;2022-12-18T02:05:16;101796.91;;;-7.17;100.00
60345;BME280;46188;52.324;8.032;2022-12-18T02:10:46;101807.81;;;-7.02;100.00
60345;BME280;46188;52.324;8.032;2022-12-18T02:19:00;101813.13;;;-7.00;100.00
60345;BME280;46188;52.324;8.032;2022-12-18T02:26:55;101801.34;;;-6.98;100.00
60345;BME280;46188;52.324;8.032;2022-12-18T02:29:25;101803.00;;;-7.08;100.00
60345;BME280;46188;52.324;8.032;2022-12-18T02:31:56;101791.03;;;-7.16;100.00
60345;BME280;46188;52.324;8.032;2022-12-18T02:34:29;101786.06;;;-7.23;100.00
60345;BME280;46188;52.324;8.032;2022-12-18T02:36:57;101782.56;;;-7.24;100.00
60345;BME280;46188;52.324;8.032;2022-12-18T02:39:25;101782.72;;;-7.22;100.00
60345;BME280;46188;52.324;8.032;2022-12-18T02:41:52;101787.09;;;-7.21;100.00
60345;BME280;46188;52.324;8.032;2022-12-18T02:44:18;101785.44;;;-7.20;100.00
60345;BME280;46188;52.324;8.032;2022-12-18T02:46:45;101787.44;;;-7.18;100.00
60345;BME280;46188;52.324;8.032;2022-12-18T02:52:15;101793.00;;;-7.13;100.00
60345;BME280;46188;52.324;8.032;2022-12-18T02:57:47;101785.66;;;-7.35;100.00
60345;BME280;46188;52.324;8.032;2022-12-18T03:00:32;101777.41;;;-7.32;100.00
60345;BME280;46188;52.324;8.032;2022-12-18T03:03:12;101775.25;;;-7.36;100.00
60345;BME280;46188;52.324;8.032;2022-12-18T03:08:33;101783.09;;;-7.35;100.00
60345;BME280;46188;52.324;8.032;2022-12-18T03:11:07;101781.56;;;-7.42;100.00
60345;BME280;46188;52.324;8.032;2022-12-18T03:13:41;101771.59;;;-7.47;100.00
60345;BME280;46188;52.324;8.032;2022-12-18T03:16:11;101779.28;;;-7.47;100.00
60345;BME280;46188;52.324;8.032;2022-12-18T03:18:52;101769.69;;;-7.41;100.00
60345;BME280;46188;52.324;8.032;2022-12-18T03:21:24;101765.91;;;-7.45;100.00
60345;BME280;46188;52.324;8.032;2022-12-18T03:23:54;101774.66;;;-7.43;100.00
60345;BME280;46188;52.324;8.032;2022-12-18T03:26:24;101780.09;;;-7.39;100.00
60345;BME280;46188;52.324;8.032;2022-12-18T03:28:55;101788.84;;;-7.37;100.00
60345;BME280;46188;52.324;8.032;2022-12-18T03:31:23;101792.63;;;-7.34;100.00
60345;BME280;46188;52.324;8.032;2022-12-18T03:33:55;101784.75;;;-7.35;100.00
60345;BME280;46188;52.324;8.032;2022-12-18T03:36:23;101792.81;;;-7.24;100.00
60345;BME280;46188;52.324;8.032;2022-12-18T03:38:49;101801.25;;;-7.25;100.00
60345;BME280;46188;52.324;8.032;2022-12-18T03:41:32;101789.16;;;-7.34;100.00
60345;BME280;46188;52.324;8.032;2022-12-18T03:44:14;101783.09;;;-7.35;100.00
60345;BME280;46188;52.324;8.032;2022-12-18T03:49:55;101779.47;;;-7.37;100.00
60345;BME280;46188;52.324;8.032;2022-12-18T03:52:32;101776.28;;;-7.43;100.00
60345;BME280;46188;52.324;8.032;2022-12-18T03:55:03;101774.31;;;-7.46;100.00
60345;BME280;46188;52.324;8.032;2022-12-18T03:57:32;101773.72;;;-7.43;100.00
60345;BME280;46188;52.324;8.032;2022-12-18T04:00:03;101765.31;;;-7.42;100.00
60345;BME280;46188;52.324;8.032;2022-12-18T04:02:30;101774.19;;;-7.38;100.00
60345;BME280;46188;52.324;8.032;2022-12-18T04:04:59;101779.97;;;-7.32;100.00
60345;BME280;46188;52.324;8.032;2022-12-18T04:07:27;101778.59;;;-7.37;100.00
60345;BME280;46188;52.324;8.032;2022-12-18T04:09:55;101783.69;;;-7.46;100.00
60345;BME280;46188;52.324;8.032;2022-12-18T04:12:24;101783.06;;;-7.44;100.00
60345;BME280;46188;52.324;8.032;2022-12-18T04:14:51;101782.50;;;-7.41;100.00
60345;BME280;46188;52.324;8.032;2022-12-18T04:17:17;101782.75;;;-7.47;100.00
60345;BME280;46188;52.324;8.032;2022-12-18T04:19:42;101784.69;;;-7.53;100.00
60345;BME280;46188;52.324;8.032;2022-12-18T04:22:09;101783.34;;;-7.49;100.00
60345;BME280;46188;52.324;8.032;2022-12-18T04:24:35;101782.69;;;-7.55;100.00
60345;BME280;46188;52.324;8.032;2022-12-18T04:27:01;101788.63;;;-7.72;100.00
60345;BME280;46188;52.324;8.032;2022-12-18T04:29:27;101793.44;;;-7.75;100.00
60345;BME280;46188;52.324;8.032;2022-12-18T04:31:53;101782.53;;;-7.82;100.00
60345;BME280;46188;52.324;8.032;2022-12-18T04:34:20;101785.41;;;-7.79;100.00
60345;BME280;46188;52.324;8.032;2022-12-18T04:36:45;101780.78;;;-7.74;100.00
60345;BME280;46188;52.324;8.032;2022-12-18T04:39:11;101784.69;;;-7.77;100.00
60345;BME280;46188;52.324;8.032;2022-12-18T04:41:37;101783.59;;;-7.80;100.00
60345;BME280;46188;52.324;8.032;2022-12-18T04:44:02;101781.31;;;-7.85;100.00
60345;BME280;46188;52.324;8.032;2022-12-18T04:46:28;101779.91;;;-7.90;100.00
60345;BME280;46188;52.324;8.032;2022-12-18T04:48:53;101783.38;;;-7.90;100.00
60345;BME280;46188;52.324;8.032;2022-12-18T04:51:19;101778.59;;;-7.87;100.00
60345;BME280;46188;52.324;8.032;2022-12-18T04:53:44;101791.38;;;-7.87;100.00
60345;BME280;46188;52.324;8.032;2022-12-18T04:56:12;101777.56;;;-7.80;100.00
60345;BME280;46188;52.324;8.032;2022-12-18T04:58:39;101778.06;;;-7.75;100.00
60345;BME280;46188;52.324;8.032;2022-12-18T05:01:07;101772.09;;;-7.67;100.00
60345;BME280;46188;52.324;8.032;2022-12-18T05:03:36;101769.53;;;-7.67;100.00
60345;BME280;46188;52.324;8.032;2022-12-18T05:06:02;101767.31;;;-7.64;100.00
60345;BME280;46188;52.324;8.032;2022-12-18T05:08:28;101769.84;;;-7.64;100.00
60345;BME280;46188;52.324;8.032;2022-12-18T05:11:04;101767.63;;;-7.61;100.00
60345;BME280;46188;52.324;8.032;2022-12-18T05:13:30;101767.53;;;-7.70;100.00
60345;BME280;46188;52.324;8.032;2022-12-18T05:15:56;101764.78;;;-7.80;100.00
60345;BME280;46188;52.324;8.032;2022-12-18T05:18:23;101772.63;;;-7.79;100.00
60345;BME280;46188;52.324;8.032;2022-12-18T05:20:50;101774.28;;;-7.79;100.00
60345;BME280;46188;52.324;8.032;2022-12-18T05:23:15;101769.66;;;-7.74;100.00
60345;BME280;46188;52.324;8.032;2022-12-18T05:25:41;101764.09;;;-7.70;100.00
60345;BME280;46188;52.324;8.032;2022-12-18T05:28:06;101759.53;;;-7.73;100.00
60345;BME280;46188;52.324;8.032;2022-12-18T05:30:32;101765.06;;;-7.61;100.00
60345;BME280;46188;52.324;8.032;2022-12-18T05:32:57;101759.53;;;-7.73;100.00
60345;BME280;46188;52.324;8.032;2022-12-18T05:35:23;101773.34;;;-7.80;100.00
60345;BME280;46188;52.324;8.032;2022-12-18T05:37:48;101766.69;;;-7.86;100.00
60345;BME280;46188;52.324;8.032;2022-12-18T05:40:13;101770.16;;;-7.86;100.00
60345;BME280;46188;52.324;8.032;2022-12-18T05:42:39;101775.97;;;-7.95;100.00
60345;BME280;46188;52.324;8.032;2022-12-18T05:45:05;101779.69;;;-8.01;100.00
60345;BME280;46188;52.324;8.032;2022-12-18T05:47:31;101783.50;;;-8.13;100.00
60345;BME280;46188;52.324;8.032;2022-12-18T05:49:57;101785.25;;;-8.21;100.00
60345;BME280;46188;52.324;8.032;2022-12-18T05:52:22;101785.94;;;-8.30;100.00
60345;BME280;46188;52.324;8.032;2022-12-18T05:54:48;101786.91;;;-8.37;100.00
60345;BME280;46188;52.324;8.032;2022-12-18T05:57:13;101792.28;;;-8.43;100.00
60345;BME280;46188;52.324;8.032;2022-12-18T05:59:39;101796.22;;;-8.38;100.00
60345;BME280;46188;52.324;8.032;2022-12-18T06:02:04;101799.31;;;-8.49;100.00
60345;BME280;46188;52.324;8.032;2022-12-18T06:04:30;101815.97;;;-8.52;100.00
60345;BME280;46188;52.324;8.032;2022-12-18T06:06:56;101815.97;;;-8.52;100.00
60345;BME280;46188;52.324;8.032;2022-12-18T06:09:21;101811.44;;;-8.55;100.00
60345;BME280;46188;52.324;8.032;2022-12-18T06:11:47;101812.75;;;-8.59;100.00
60345;BME280;46188;52.324;8.032;2022-12-18T06:14:12;101807.22;;;-8.55;100.00
60345;BME280;46188;52.324;8.032;2022-12-18T06:16:38;101813.34;;;-8.45;100.00
60345;BME280;46188;52.324;8.032;2022-12-18T06:19:05;101810.47;;;-8.48;100.00
60345;BME280;46188;52.324;8.032;2022-12-18T06:21:31;101820.34;;;-8.51;100.00
60345;BME280;46188;52.324;8.032;2022-12-18T06:23:57;101820.75;;;-8.56;100.00
60345;BME280;46188;52.324;8.032;2022-12-18T06:26:23;101825.63;;;-8.50;100.00
60345;BME280;46188;52.324;8.032;2022-12-18T06:28:49;101830.97;;;-8.56;100.00
60345;BME280;46188;52.324;8.032;2022-12-18T06:31:14;101832.13;;;-8.61;100.00
60345;BME280;46188;52.324;8.032;2022-12-18T06:33:40;101829.97;;;-8.65;100.00
60345;BME280;46188;52.324;8.032;2022-12-18T06:36:09;101830.97;;;-8.72;100.00
60345;BME280;46188;52.324;8.032;2022-12-18T06:38:36;101840.78;;;-8.67;100.00
60345;BME280;46188;52.324;8.032;2022-12-18T06:41:16;101840.78;;;-8.67;100.00
60345;BME280;46188;52.324;8.032;2022-12-18T06:43:42;101847.81;;;-8.58;100.00
60345;BME280;46188;52.324;8.032;2022-12-18T06:46:09;101855.41;;;-8.50;100.00
60345;BME280;46188;52.324;8.032;2022-12-18T06:48:35;101850.59;;;-8.47;100.00
60345;BME280;46188;52.324;8.032;2022-12-18T06:51:01;101849.47;;;-8.42;100.00
60345;BME280;46188;52.324;8.032;2022-12-18T06:53:27;101853.50;;;-8.44;100.00
60345;BME280;46188;52.324;8.032;2022-12-18T06:55:52;101852.09;;;-8.49;100.00
60345;BME280;46188;52.324;8.032;2022-12-18T06:58:18;101851.00;;;-8.67;100.00
60345;BME280;46188;52.324;8.032;2022-12-18T07:00:43;101847.09;;;-8.80;100.00
60345;BME280;46188;52.324;8.032;2022-12-18T07:03:09;101848.19;;;-9.01;100.00
60345;BME280;46188;52.324;8.032;2022-12-18T07:05:39;101842.41;;;-9.07;100.00
60345;BME280;46188;52.324;8.032;2022-12-18T07:08:05;101838.94;;;-9.07;100.00
60345;BME280;46188;52.324;8.032;2022-12-18T07:10:31;101837.25;;;-9.00;100.00
60345;BME280;46188;52.324;8.032;2022-12-18T07:12:56;101833.53;;;-8.95;100.00
60345;BME280;46188;52.324;8.032;2022-12-18T07:15:22;101826.44;;;-8.97;100.00
60345;BME280;46188;52.324;8.032;2022-12-18T07:17:47;101827.03;;;-9.00;100.00
60345;BME280;46188;52.324;8.032;2022-12-18T07:20:13;101835.41;;;-9.01;100.00
60345;BME280;46188;52.324;8.032;2022-12-18T07:22:38;101829.25;;;-9.03;100.00
60345;BME280;46188;52.324;8.032;2022-12-18T07:25:04;101832.13;;;-9.00;100.00
60345;BME280;46188;52.324;8.032;2022-12-18T07:27:30;101830.41;;;-8.92;100.00
60345;BME280;46188;52.324;8.032;2022-12-18T07:29:55;101838.25;;;-8.91;100.00
60345;BME280;46188;52.324;8.032;2022-12-18T07:32:21;101831.94;;;-8.78;100.00
60345;BME280;46188;52.324;8.032;2022-12-18T07:34:46;101828.31;;;-8.80;100.00
60345;BME280;46188;52.324;8.032;2022-12-18T07:37:12;101833.00;;;-8.76;100.00
60345;BME280;46188;52.324;8.032;2022-12-18T07:39:37;101832.84;;;-8.78;100.00
60345;BME280;46188;52.324;8.032;2022-12-18T07:42:03;101826.03;;;-8.70;100.00
60345;BME280;46188;52.324;8.032;2022-12-18T07:44:47;101818.53;;;-8.68;100.00
60345;BME280;46188;52.324;8.032;2022-12-18T07:47:12;101833.69;;;-8.70;100.00
60345;BME280;46188;52.324;8.032;2022-12-18T07:49:38;101834.66;;;-8.77;100.00
60345;BME280;46188;52.324;8.032;2022-12-18T07:52:03;101828.72;;;-8.84;100.00
60345;BME280;46188;52.324;8.032;2022-12-18T07:54:29;101821.94;;;-8.84;100.00
60345;BME280;46188;52.324;8.032;2022-12-18T07:56:54;101825.00;;;-8.79;100.00
60345;BME280;46188;52.324;8.032;2022-12-18T07:59:20;101815.38;;;-8.66;100.00
60345;BME280;46188;52.324;8.032;2022-12-18T08:01:45;101806.34;;;-8.55;100.00
60345;BME280;46188;52.324;8.032;2022-12-18T08:04:11;101812.50;;;-8.37;100.00
60345;BME280;46188;52.324;8.032;2022-12-18T08:06:36;101807.63;;;-8.27;100.00
60345;BME280;46188;52.324;8.032;2022-12-18T08:09:02;101806.28;;;-8.23;100.00
60345;BME280;46188;52.324;8.032;2022-12-18T08:11:28;101806.03;;;-8.18;100.00
60345;BME280;46188;52.324;8.032;2022-12-18T08:13:54;101798.63;;;-8.07;100.00
60345;BME280;46188;52.324;8.032;2022-12-18T08:16:20;101801.28;;;-7.90;100.00
60345;BME280;46188;52.324;8.032;2022-12-18T08:18:46;101795.50;;;-7.80;100.00
60345;BME280;46188;52.324;8.032;2022-12-18T08:21:17;101790.00;;;-7.67;100.00
60345;BME280;46188;52.324;8.032;2022-12-18T08:23:43;101780.94;;;-7.48;100.00
60345;BME280;46188;52.324;8.032;2022-12-18T08:26:13;101772.59;;;-7.29;100.00
60345;BME280;46188;52.324;8.032;2022-12-18T08:28:39;101782.00;;;-7.12;100.00
60345;BME280;46188;52.324;8.032;2022-12-18T08:31:05;101783.16;;;-6.93;100.00
60345;BME280;46188;52.324;8.032;2022-12-18T08:33:31;101783.16;;;-6.84;100.00
60345;BME280;46188;52.324;8.032;2022-12-18T08:35:58;101789.72;;;-6.61;100.00
60345;BME280;46188;52.324;8.032;2022-12-18T08:38:24;101790.66;;;-6.43;100.00
60345;BME280;46188;52.324;8.032;2022-12-18T08:40:49;101795.78;;;-6.35;100.00
60345;BME280;46188;52.324;8.032;2022-12-18T08:43:15;101802.75;;;-6.25;100.00
60345;BME280;46188;52.324;8.032;2022-12-18T08:45:59;101800.34;;;-6.06;100.00
60345;BME280;46188;52.324;8.032;2022-12-18T08:48:24;101808.44;;;-5.93;100.00
60345;BME280;46188;52.324;8.032;2022-12-18T08:50:59;101796.13;;;-5.97;100.00
60345;BME280;46188;52.324;8.032;2022-12-18T08:53:25;101790.97;;;-5.97;100.00
60345;BME280;46188;52.324;8.032;2022-12-18T08:55:51;101782.66;;;-6.03;100.00
60345;BME280;46188;52.324;8.032;2022-12-18T08:58:17;101768.31;;;-6.09;100.00
60345;BME280;46188;52.324;8.032;2022-12-18T09:00:43;101774.66;;;-6.06;100.00
60345;BME280;46188;52.324;8.032;2022-12-18T09:03:13;101767.66;;;-5.89;100.00
60345;BME280;46188;52.324;8.032;2022-12-18T09:05:38;101780.66;;;-5.70;100.00
60345;BME280;46188;52.324;8.032;2022-12-18T09:08:04;101763.13;;;-5.75;100.00
60345;BME280;46188;52.324;8.032;2022-12-18T09:10:29;101775.66;;;-5.69;100.00
60345;BME280;46188;52.324;8.032;2022-12-18T09:12:55;101768.53;;;-5.54;100.00
60345;BME280;46188;52.324;8.032;2022-12-18T09:15:21;101776.66;;;-5.41;100.00
60345;BME280;46188;52.324;8.032;2022-12-18T09:17:47;101770.72;;;-5.31;100.00
60345;BME280;46188;52.324;8.032;2022-12-18T09:20:15;101779.94;;;-5.33;100.00
60345;BME280;46188;52.324;8.032;2022-12-18T09:22:41;101781.50;;;-5.44;100.00
60345;BME280;46188;52.324;8.032;2022-12-18T09:25:06;101791.63;;;-5.45;100.00
60345;BME280;46188;52.324;8.032;2022-12-18T09:27:34;101785.06;;;-5.33;100.00
60345;BME280;46188;52.324;8.032;2022-12-18T09:30:00;101788.97;;;-5.19;100.00
60345;BME280;46188;52.324;8.032;2022-12-18T09:32:26;101783.53;;;-5.22;100.00
60345;BME280;46188;52.324;8.032;2022-12-18T09:34:51;101784.69;;;-5.01;100.00
60345;BME280;46188;52.324;8.032;2022-12-18T09:37:16;101784.22;;;-4.69;100.00
60345;BME280;46188;52.324;8.032;2022-12-18T09:39:42;101789.28;;;-4.52;100.00
60345;BME280;46188;52.324;8.032;2022-12-18T09:42:13;101796.03;;;-4.24;100.00
60345;BME280;46188;52.324;8.032;2022-12-18T09:44:45;101784.63;;;-3.99;100.00
60345;BME280;46188;52.324;8.032;2022-12-18T09:49:44;101784.53;;;-3.02;100.00
60345;BME280;46188;52.324;8.032;2022-12-18T09:57:31;101770.00;;;-2.81;99.79
60345;BME280;46188;52.324;8.032;2022-12-18T10:00:04;101776.09;;;-2.39;98.22
60345;BME280;46188;52.324;8.032;2022-12-18T10:02:32;101777.69;;;-1.89;96.48
60345;BME280;46188;52.324;8.032;2022-12-18T10:05:11;101759.63;;;-1.34;92.43
60345;BME280;46188;52.324;8.032;2022-12-18T10:07:55;101754.56;;;-1.97;91.93
60345;BME280;46188;52.324;8.032;2022-12-18T10:10:42;101739.72;;;-2.00;94.52
60345;BME280;46188;52.324;8.032;2022-12-18T10:13:35;101726.22;;;-2.38;94.91
60345;BME280;46188;52.324;8.032;2022-12-18T10:16:37;101719.56;;;-2.04;96.33
60345;BME280;46188;52.324;8.032;2022-12-18T10:21:51;101709.59;;;-1.89;95.31
60345;BME280;46188;52.324;8.032;2022-12-18T10:24:24;101710.41;;;-2.11;94.71
60345;BME280;46188;52.324;8.032;2022-12-18T10:26:53;101711.34;;;-2.20;96.30
60345;BME280;46188;52.324;8.032;2022-12-18T10:29:21;101709.63;;;-1.99;95.61
60345;BME280;46188;52.324;8.032;2022-12-18T10:31:47;101707.91;;;-1.89;96.01
60345;BME280;46188;52.324;8.032;2022-12-18T10:34:13;101713.03;;;-1.78;96.18
60345;BME280;46188;52.324;8.032;2022-12-18T10:36:38;101714.56;;;-1.80;95.75
60345;BME280;46188;52.324;8.032;2022-12-18T10:39:30;101712.84;;;-2.02;97.34
60345;BME280;46188;52.324;8.032;2022-12-18T10:42:19;101710.03;;;-2.15;98.14
60345;BME280;46188;52.324;8.032;2022-12-18T10:44:45;101710.72;;;-2.18;98.81
60345;BME280;46188;52.324;8.032;2022-12-18T10:47:17;101702.56;;;-2.23;99.27
60345;BME280;46188;52.324;8.032;2022-12-18T10:49:49;101683.69;;;-2.11;98.61
60345;BME280;46188;52.324;8.032;2022-12-18T10:52:19;101679.56;;;-1.77;99.26
60345;BME280;46188;52.324;8.032;2022-12-18T10:54:55;101667.13;;;-1.49;97.98
60345;BME280;46188;52.324;8.032;2022-12-18T10:59:54;101666.97;;;-1.72;97.48
60345;BME280;46188;52.324;8.032;2022-12-18T11:02:37;101660.66;;;-1.98;99.00
60345;BME280;46188;52.324;8.032;2022-12-18T11:05:26;101667.13;;;-2.03;99.87
60345;BME280;46188;52.324;8.032;2022-12-18T11:07:52;101668.03;;;-2.02;100.00
60345;BME280;46188;52.324;8.032;2022-12-18T11:10:32;101661.72;;;-2.06;100.00
60345;BME280;46188;52.324;8.032;2022-12-18T11:13:23;101663.78;;;-2.12;100.00
60345;BME280;46188;52.324;8.032;2022-12-18T11:15:50;101666.25;;;-2.03;100.00
60345;BME280;46188;52.324;8.032;2022-12-18T11:18:26;101658.06;;;-1.98;100.00
60345;BME280;46188;52.324;8.032;2022-12-18T11:21:05;101652.91;;;-1.98;100.00
60345;BME280;46188;52.324;8.032;2022-12-18T11:23:31;101645.66;;;-1.92;100.00
60345;BME280;46188;52.324;8.032;2022-12-18T11:26:02;101644.38;;;-1.97;100.00
60345;BME280;46188;52.324;8.032;2022-12-18T11:33:56;101631.72;;;-2.04;100.00
60345;BME280;46188;52.324;8.032;2022-12-18T11:36:23;101635.19;;;-1.93;100.00
60345;BME280;46188;52.324;8.032;2022-12-18T11:38:51;101625.09;;;-1.90;100.00
60345;BME280;46188;52.324;8.032;2022-12-18T11:41:39;101623.66;;;-1.87;100.00
60345;BME280;46188;52.324;8.032;2022-12-18T11:50:14;101613.94;;;-2.11;100.00
60345;BME280;46188;52.324;8.032;2022-12-18T11:52:41;101607.25;;;-2.19;100.00
60345;BME280;46188;52.324;8.032;2022-12-18T11:55:16;101597.16;;;-2.16;100.00
60345;BME280;46188;52.324;8.032;2022-12-18T11:57:56;101582.13;;;-2.10;100.00
60345;BME280;46188;52.324;8.032;2022-12-18T12:00:26;101583.56;;;-2.14;100.00
60345;BME280;46188;52.324;8.032;2022-12-18T12:03:27;101586.16;;;-2.14;100.00
60345;BME280;46188;52.324;8.032;2022-12-18T12:16:53;101592.13;;;-2.15;100.00
60345;BME280;46188;52.324;8.032;2022-12-18T12:30:16;101569.19;;;-2.00;100.00
60345;BME280;46188;52.324;8.032;2022-12-18T12:40:42;101569.72;;;-2.04;100.00
60345;BME280;46188;52.324;8.032;2022-12-18T12:43:27;101566.00;;;-2.08;100.00
60345;BME280;46188;52.324;8.032;2022-12-18T12:45:55;101561.72;;;-2.07;100.00
60345;BME280;46188;52.324;8.032;2022-12-18T12:48:44;101548.78;;;-2.07;100.00
60345;BME280;46188;52.324;8.032;2022-12-18T12:53:46;101531.63;;;-2.07;100.00
60345;BME280;46188;52.324;8.032;2022-12-18T12:56:15;101521.63;;;-2.02;100.00
60345;BME280;46188;52.324;8.032;2022-12-18T13:01:42;101510.59;;;-2.11;100.00
60345;BME280;46188;52.324;8.032;2022-12-18T13:04:46;101504.19;;;-2.16;100.00
60345;BME280;46188;52.324;8.032;2022-12-18T13:34:29;101458.88;;;-2.23;100.00
60345;BME280;46188;52.324;8.032;2022-12-18T13:39:42;101469.25;;;-2.11;100.00
60345;BME280;46188;52.324;8.032;2022-12-18T13:44:35;101460.38;;;-2.15;100.00
60345;BME280;46188;52.324;8.032;2022-12-18T13:47:02;101449.00;;;-2.17;100.00
60345;BME280;46188;52.324;8.032;2022-12-18T13:49:43;101457.31;;;-2.21;100.00
60345;BME280;46188;52.324;8.032;2022-12-18T13:52:21;101456.06;;;-2.26;100.00
60345;BME280;46188;52.324;8.032;2022-12-18T13:54:51;101443.38;;;-2.23;100.00
60345;BME280;46188;52.324;8.032;2022-12-18T13:59:56;101437.28;;;-2.24;100.00
60345;BME280;46188;52.324;8.032;2022-12-18T14:02:28;101448.72;;;-2.32;100.00
60345;BME280;46188;52.324;8.032;2022-12-18T14:04:54;101438.94;;;-2.36;100.00
60345;BME280;46188;52.324;8.032;2022-12-18T14:07:25;101436.34;;;-2.36;100.00
60345;BME280;46188;52.324;8.032;2022-12-18T14:10:01;101442.53;;;-2.34;100.00
60345;BME280;46188;52.324;8.032;2022-12-18T14:12:29;101449.13;;;-2.37;100.00
60345;BME280;46188;52.324;8.032;2022-12-18T14:18:00;101438.19;;;-2.45;100.00
60345;BME280;46188;52.324;8.032;2022-12-18T14:20:29;101436.28;;;-2.48;100.00
60345;BME280;46188;52.324;8.032;2022-12-18T14:22:56;101435.41;;;-2.48;100.00
60345;BME280;46188;52.324;8.032;2022-12-18T14:25:25;101431.53;;;-2.53;100.00
60345;BME280;46188;52.324;8.032;2022-12-18T14:27:53;101414.63;;;-2.50;100.00
60345;BME280;46188;52.324;8.032;2022-12-18T14:35:39;101435.81;;;-2.54;100.00
60345;BME280;46188;52.324;8.032;2022-12-18T14:40:47;101410.53;;;-2.58;100.00
60345;BME280;46188;52.324;8.032;2022-12-18T14:43:16;101411.94;;;-2.62;100.00
60345;BME280;46188;52.324;8.032;2022-12-18T14:45:43;101399.84;;;-2.63;100.00
60345;BME280;46188;52.324;8.032;2022-12-18T14:50:41;101396.97;;;-2.55;100.00
60345;BME280;46188;52.324;8.032;2022-12-18T14:53:20;101396.97;;;-2.55;100.00
60345;BME280;46188;52.324;8.032;2022-12-18T14:55:48;101399.66;;;-2.54;100.00
60345;BME280;46188;52.324;8.032;2022-12-18T14:58:15;101397.75;;;-2.56;100.00
60345;BME280;46188;52.324;8.032;2022-12-18T15:00:41;101395.19;;;-2.56;100.00
60345;BME280;46188;52.324;8.032;2022-12-18T15:03:08;101396.97;;;-2.55;100.00
60345;BME280;46188;52.324;8.032;2022-12-18T15:05:35;101392.03;;;-2.52;100.00
60345;BME280;46188;52.324;8.032;2022-12-18T15:08:01;101380.94;;;-2.51;100.00
60345;BME280;46188;52.324;8.032;2022-12-18T15:10:32;101375.28;;;-2.57;100.00